createdAt,value
2022-12-23T00:03:20.892Z,98653.06
2022-12-23T00:08:30.862Z,98712.56
2022-12-23T00:13:58.859Z,98632.19
2022-12-23T00:19:06.850Z,98667.53
2022-12-23T00:24:14.877Z,98629.78
2022-12-23T00:29:22.867Z,98666.03
2022-12-23T00:34:30.850Z,98700.50
2022-12-23T00:40:04.272Z,98715.50
2022-12-23T00:45:23.864Z,98718.63
2022-12-23T00:50:31.903Z,98728.78
2022-12-23T00:55:39.889Z,98678.22
2022-12-23T01:01:06.973Z,98702.75
2022-12-23T01:06:14.939Z,98698.72
2022-12-23T01:11:22.959Z,98695.06
2022-12-23T01:16:31.005Z,98701.03
2022-12-23T01:21:39.898Z,98715.19
2022-12-23T01:26:47.992Z,98759.44
2022-12-23T01:31:56.018Z,98776.50
2022-12-23T01:37:03.955Z,98732.59
2022-12-23T01:42:37.954Z,98751.06
2022-12-23T01:48:17.003Z,98738.59
2022-12-23T01:53:44.934Z,98799.38
2022-12-23T01:59:03.948Z,98756.41
2022-12-23T02:04:17.008Z,98774.47
2022-12-23T02:09:46.974Z,98772.81
2022-12-23T02:15:32.022Z,98782.75
2022-12-23T02:21:07.037Z,98787.69
2022-12-23T02:26:53.149Z,98836.97
2022-12-23T02:32:11.989Z,98740.28
2022-12-23T02:37:48.099Z,98773.97
2022-12-23T02:43:16.121Z,98809.78
2022-12-23T02:48:37.096Z,98846.91
2022-12-23T02:53:53.092Z,98815.16
2022-12-23T02:59:07.126Z,98819.41
2022-12-23T03:04:16.089Z,98828.59
2022-12-23T03:09:38.170Z,98818.88
2022-12-23T03:15:08.184Z,98799.78
2022-12-23T03:20:57.158Z,98805.31
2022-12-23T03:26:19.115Z,98824.63
2022-12-23T03:31:33.221Z,98816.97
2022-12-23T03:36:49.121Z,98802.78
2022-12-23T03:42:04.242Z,98839.03
2022-12-23T03:47:27.157Z,98839.97
2022-12-23T03:52:42.166Z,98847.25
2022-12-23T03:58:10.170Z,98819.75
2022-12-23T04:03:32.148Z,98852.63
2022-12-23T04:08:44.152Z,98877.31
2022-12-23T04:13:55.136Z,98829.19
2022-12-23T04:19:03.171Z,98884.28
2022-12-23T04:24:12.133Z,98866.59
2022-12-23T04:29:20.123Z,98885.34
2022-12-23T04:34:28.168Z,98850.81
2022-12-23T04:39:36.191Z,98829.53
2022-12-23T04:44:44.237Z,98836.00
2022-12-23T04:49:52.169Z,98880.44
2022-12-23T04:55:00.221Z,98858.16
2022-12-23T05:00:08.245Z,98895.13
2022-12-23T05:05:16.244Z,98874.53
2022-12-23T05:10:24.212Z,98878.75
2022-12-23T05:15:32.210Z,98778.56
2022-12-23T05:20:40.202Z,98829.56
2022-12-23T05:25:48.219Z,98823.16
2022-12-23T05:30:56.258Z,98808.25
2022-12-23T05:36:05.261Z,98842.97
2022-12-23T05:41:13.229Z,98860.84
2022-12-23T05:46:26.227Z,98825.25
2022-12-23T05:51:35.291Z,98820.69
2022-12-23T05:56:43.240Z,98786.41
2022-12-23T06:01:51.403Z,98785.16
2022-12-23T06:07:13.256Z,98814.94
2022-12-23T06:12:21.331Z,98809.28
2022-12-23T06:17:29.282Z,98772.97
2022-12-23T06:22:38.342Z,98759.69
2022-12-23T06:27:46.258Z,98819.50
2022-12-23T06:32:54.340Z,98785.88
2022-12-23T06:38:02.292Z,98790.72
2022-12-23T06:43:10.299Z,98826.53
2022-12-23T06:48:18.320Z,98831.56
2022-12-23T06:53:26.329Z,98792.28
2022-12-23T06:58:34.345Z,98787.63
2022-12-23T07:03:42.397Z,98842.53
2022-12-23T07:08:50.345Z,98843.31
2022-12-23T07:13:58.378Z,98853.88
2022-12-23T07:19:06.411Z,98827.84
2022-12-23T07:24:15.374Z,98883.00
2022-12-23T07:29:23.370Z,98861.91
2022-12-23T07:34:31.423Z,98872.00
2022-12-23T07:39:39.413Z,98896.75
2022-12-23T07:44:48.395Z,98862.28
2022-12-23T07:49:56.365Z,98851.44
2022-12-23T07:55:04.395Z,98879.72
2022-12-23T08:00:17.408Z,98843.06
2022-12-23T08:05:32.463Z,98878.03
2022-12-23T08:10:47.884Z,98889.66
2022-12-23T08:16:02.452Z,98844.53
2022-12-23T08:21:13.475Z,98834.66
2022-12-23T08:26:32.468Z,98813.22
2022-12-23T08:31:40.492Z,98882.06
2022-12-23T08:36:49.491Z,98860.69
2022-12-23T08:41:57.470Z,98818.94
2022-12-23T08:46:59.244Z,98846.94
2022-12-23T08:52:01.135Z,98844.19
2022-12-23T08:57:02.905Z,98903.97
2022-12-23T09:02:04.831Z,98844.78
2022-12-23T09:07:06.698Z,98871.78
2022-12-23T09:12:08.435Z,98818.94
2022-12-23T09:17:10.263Z,98846.00
2022-12-23T09:22:12.023Z,98826.88
2022-12-23T09:27:13.818Z,98789.84
2022-12-23T09:32:15.563Z,98786.06
2022-12-23T09:37:17.606Z,98787.69
2022-12-23T09:42:47.344Z,98786.19
2022-12-23T09:47:50.464Z,98828.59
2022-12-23T09:53:06.411Z,98795.28
2022-12-23T09:58:27.396Z,98802.97
2022-12-23T10:04:10.214Z,98808.94
2022-12-23T10:09:14.256Z,98775.59
2022-12-23T10:14:25.267Z,98744.19
2022-12-23T10:19:41.699Z,98750.72
2022-12-23T10:24:46.059Z,98746.25
2022-12-23T10:29:47.941Z,98777.13
2022-12-23T10:35:12.148Z,98710.88
2022-12-23T10:40:23.942Z,98708.22
2022-12-23T10:45:51.749Z,98665.97
2022-12-23T10:51:03.318Z,98759.09
2022-12-23T10:56:07.506Z,98787.44
2022-12-23T11:06:21.570Z,98785.53
2022-12-23T11:11:23.249Z,98691.97
2022-12-23T11:16:27.783Z,98753.06
2022-12-23T11:21:31.171Z,98682.06
2022-12-23T11:26:33.078Z,98621.69
2022-12-23T11:31:36.748Z,98651.22
2022-12-23T11:36:38.483Z,98652.69
2022-12-23T11:41:44.637Z,98648.34
2022-12-23T11:46:46.262Z,98661.19
2022-12-23T11:52:00.782Z,98626.72
2022-12-23T11:57:06.182Z,98615.28
2022-12-23T12:02:15.693Z,98603.09
2022-12-23T12:07:19.673Z,98587.78
2022-12-23T12:12:22.143Z,98571.31
2022-12-23T12:17:47.112Z,98596.78
2022-12-23T12:22:55.349Z,98566.16
2022-12-23T12:28:02.851Z,98548.97
2022-12-23T12:33:13.841Z,98545.31
2022-12-23T12:38:21.644Z,98565.31
2022-12-23T12:43:31.764Z,98515.25
2022-12-23T12:48:56.847Z,98518.28
2022-12-23T12:54:29.721Z,98523.19
2022-12-23T12:59:40.296Z,98569.91
2022-12-23T13:04:56.878Z,98522.25
2022-12-23T13:10:10.692Z,98531.41
2022-12-23T13:15:18.353Z,98527.53
2022-12-23T13:20:38.133Z,98555.91
2022-12-23T13:26:08.628Z,98516.56
2022-12-23T13:31:31.677Z,98530.59
2022-12-23T13:36:54.300Z,98520.88
2022-12-23T13:42:04.646Z,98542.66
2022-12-23T13:47:29.343Z,98467.22
2022-12-23T13:52:37.194Z,98491.75
2022-12-23T13:57:41.758Z,98506.34
2022-12-23T14:03:05.637Z,98491.16
2022-12-23T14:08:19.428Z,98449.69
2022-12-23T14:13:24.811Z,98469.66
2022-12-23T14:18:56.363Z,98469.06
2022-12-23T14:24:35.184Z,98484.84
2022-12-23T14:30:07.882Z,98507.69
2022-12-23T14:35:21.354Z,98474.38
2022-12-23T14:40:38.073Z,98470.97
2022-12-23T14:45:43.496Z,98520.94
2022-12-23T14:50:57.507Z,98526.41
2022-12-23T14:56:08.085Z,98532.16
2022-12-23T15:01:13.313Z,98523.19
2022-12-23T15:06:32.482Z,98541.34
2022-12-23T15:11:36.379Z,98520.97
2022-12-23T15:16:40.409Z,98541.66
2022-12-23T15:21:43.964Z,98497.84
2022-12-23T15:27:24.581Z,98575.88
2022-12-23T15:32:17.391Z,98509.53
2022-12-23T15:37:25.755Z,98562.38
2022-12-23T15:42:39.776Z,98553.03
2022-12-23T15:47:43.089Z,98556.47
2022-12-23T15:52:47.821Z,98553.25
2022-12-23T15:57:50.968Z,98547.38
2022-12-23T16:03:05.505Z,98564.06
2022-12-23T16:08:21.733Z,98562.28
2022-12-23T16:13:28.454Z,98599.84
2022-12-23T16:18:32.793Z,98621.13
2022-12-23T16:23:37.140Z,98587.84
2022-12-23T16:28:42.505Z,98567.34
2022-12-23T16:33:53.562Z,98587.84
2022-12-23T16:39:07.597Z,98576.56
2022-12-23T16:44:09.729Z,98613.91
2022-12-23T16:49:18.686Z,98598.53
2022-12-23T16:54:21.102Z,98608.03
2022-12-23T16:59:24.923Z,98600.84
2022-12-23T17:04:26.651Z,98620.19
2022-12-23T17:09:28.399Z,98608.34
2022-12-23T17:14:30.085Z,98643.34
2022-12-23T17:19:32.953Z,98585.94
2022-12-23T17:24:34.786Z,98627.28
2022-12-23T17:29:36.468Z,98555.34
2022-12-23T17:34:38.760Z,98631.31
2022-12-23T17:39:41.003Z,98621.31
2022-12-23T17:44:44.142Z,98611.75
2022-12-23T17:49:46.595Z,98669.38
2022-12-23T17:54:49.762Z,98659.00
2022-12-23T17:59:53.082Z,98665.78
2022-12-23T18:04:54.960Z,98686.34
2022-12-23T18:09:56.651Z,98694.50
2022-12-23T18:14:58.469Z,98675.75
2022-12-23T18:20:00.152Z,98679.25
2022-12-23T18:25:01.908Z,98679.09
2022-12-23T18:30:04.034Z,98666.03
2022-12-23T18:35:33.090Z,98641.47
2022-12-23T18:40:34.916Z,98639.81
2022-12-23T18:45:50.702Z,98666.78
2022-12-23T18:50:54.381Z,98686.41
2022-12-23T18:55:56.161Z,98724.31
2022-12-23T19:00:58.083Z,98695.66
2022-12-23T19:06:06.615Z,98696.78
2022-12-23T19:11:20.534Z,98696.09
2022-12-23T19:16:22.636Z,98697.81
2022-12-23T19:21:24.327Z,98701.00
2022-12-23T19:26:26.085Z,98723.69
2022-12-23T19:31:29.746Z,98707.00
2022-12-23T19:36:31.695Z,98709.41
2022-12-23T19:41:33.388Z,98750.00
2022-12-23T19:46:35.265Z,98725.38
2022-12-23T19:51:37.138Z,98769.22
2022-12-23T19:56:38.794Z,98810.53
2022-12-23T20:01:40.489Z,98755.03
2022-12-23T20:06:43.086Z,98764.91
2022-12-23T20:11:47.862Z,98789.09
2022-12-23T20:16:50.218Z,98822.38
2022-12-23T20:21:52.220Z,98845.59
2022-12-23T20:26:53.907Z,98836.56
2022-12-23T20:31:55.594Z,98895.31
2022-12-23T20:36:57.248Z,98872.13
2022-12-23T20:41:59.018Z,98880.94
2022-12-23T20:47:00.808Z,98896.38
2022-12-23T20:52:02.703Z,98880.63
2022-12-23T20:57:04.386Z,98869.59
2022-12-23T21:02:06.337Z,98885.25
2022-12-23T21:07:08.580Z,98859.47
2022-12-23T21:12:10.305Z,98909.31
2022-12-23T21:17:12.037Z,98929.34
2022-12-23T21:22:13.709Z,98908.13
2022-12-23T21:27:15.418Z,98919.81
2022-12-23T21:32:17.125Z,98956.59
2022-12-23T21:37:18.872Z,98931.56
2022-12-23T21:42:20.612Z,98931.47
2022-12-23T21:47:22.336Z,98956.66
2022-12-23T21:52:24.081Z,98905.03
2022-12-23T21:57:25.687Z,98915.63
2022-12-23T22:02:27.479Z,98954.22
2022-12-23T22:07:29.271Z,98962.41
2022-12-23T22:12:30.989Z,98947.16
2022-12-23T22:17:32.620Z,98947.13
2022-12-23T22:22:34.267Z,98972.41
2022-12-23T22:27:35.935Z,99003.13
2022-12-23T22:32:42.283Z,98980.31
2022-12-23T22:37:44.291Z,98910.25
2022-12-23T22:42:45.995Z,98981.81
2022-12-23T22:47:47.687Z,98995.56
2022-12-23T22:52:49.326Z,98965.56
2022-12-23T22:57:50.985Z,98939.97
2022-12-23T23:02:52.759Z,99010.91
2022-12-23T23:07:54.778Z,99005.88
2022-12-23T23:12:56.473Z,98989.41
2022-12-23T23:17:58.207Z,99036.59
2022-12-23T23:22:59.864Z,99013.09
2022-12-23T23:28:01.543Z,99029.38
2022-12-23T23:33:03.226Z,99059.94
2022-12-23T23:38:04.933Z,99037.38
2022-12-23T23:43:06.613Z,99034.13
2022-12-23T23:48:10.040Z,99049.00
2022-12-23T23:53:14.273Z,99057.91
2022-12-23T23:58:15.960Z,99035.19
